createdAt,value
2023-04-25T00:01:57.631Z,10.40
2023-04-25T00:04:24.705Z,10.50
2023-04-25T00:06:53.238Z,10.50
2023-04-25T00:09:19.992Z,10.30
2023-04-25T00:11:46.770Z,10.40
2023-04-25T00:14:13.674Z,10.50
2023-04-25T00:16:42.105Z,10.50
2023-04-25T00:19:08.960Z,10.50
2023-04-25T00:21:36.352Z,10.50
2023-04-25T00:24:03.225Z,10.70
2023-04-25T00:26:30.040Z,10.70
2023-04-25T00:28:56.734Z,10.70
2023-04-25T00:31:23.548Z,10.60
2023-04-25T00:33:50.668Z,10.70
2023-04-25T00:36:18.140Z,10.70
2023-04-25T00:38:44.907Z,10.60
2023-04-25T00:41:12.493Z,10.70
2023-04-25T00:43:41.047Z,10.70
2023-04-25T00:46:07.824Z,10.70
2023-04-25T00:48:34.588Z,10.70
2023-04-25T00:51:01.603Z,10.60
2023-04-25T00:53:30.651Z,10.60
2023-04-25T00:55:57.509Z,10.50
2023-04-25T00:58:24.785Z,10.70
2023-04-25T01:00:53.230Z,10.60
2023-04-25T01:03:21.308Z,10.50
2023-04-25T01:05:49.032Z,10.60
2023-04-25T01:08:16.008Z,10.60
2023-04-25T01:10:42.795Z,10.60
2023-04-25T01:13:09.946Z,10.60
2023-04-25T01:15:37.058Z,10.40
2023-04-25T01:18:06.373Z,10.40
2023-04-25T01:20:34.516Z,10.30
2023-04-25T01:23:03.299Z,10.30
2023-04-25T01:25:31.779Z,10.20
2023-04-25T01:27:59.675Z,10.20
2023-04-25T01:30:30.305Z,10.20
2023-04-25T01:32:58.503Z,10.10
2023-04-25T01:35:25.989Z,10.10
2023-04-25T01:37:54.848Z,10.00
2023-04-25T01:40:23.400Z,10.00
2023-04-25T01:42:51.873Z,9.90
2023-04-25T01:45:19.968Z,9.90
2023-04-25T01:47:50.125Z,9.90
2023-04-25T01:50:19.435Z,9.90
2023-04-25T01:52:46.551Z,9.70
2023-04-25T01:55:13.880Z,9.70
2023-04-25T01:57:50.048Z,9.70
2023-04-25T02:00:18.331Z,9.80
2023-04-25T02:02:45.257Z,9.70
2023-04-25T02:05:21.787Z,9.70
2023-04-25T02:07:49.316Z,9.70
2023-04-25T02:10:16.230Z,9.80
2023-04-25T02:13:03.908Z,9.70
2023-04-25T02:15:49.111Z,9.60
2023-04-25T02:18:18.612Z,9.60
2023-04-25T02:20:47.929Z,9.50
2023-04-25T02:23:16.340Z,9.60
2023-04-25T02:25:43.247Z,9.60
2023-04-25T02:28:10.031Z,9.50
2023-04-25T02:30:37.160Z,9.50
2023-04-25T02:33:05.884Z,9.50
2023-04-25T02:35:32.711Z,9.50
2023-04-25T02:37:59.419Z,9.40
2023-04-25T02:40:26.157Z,9.60
2023-04-25T02:42:54.725Z,10.70
2023-04-25T02:45:21.872Z,9.60
2023-04-25T02:47:48.638Z,9.50
2023-04-25T02:50:15.470Z,9.40
2023-04-25T02:52:42.235Z,9.50
2023-04-25T02:55:15.567Z,9.50
2023-04-25T02:57:43.466Z,9.50
2023-04-25T03:00:15.210Z,9.50
2023-04-25T03:02:42.173Z,9.50
2023-04-25T03:05:09.111Z,9.40
2023-04-25T03:07:36.604Z,9.40
2023-04-25T03:10:03.533Z,10.20
2023-04-25T03:12:32.243Z,9.40
2023-04-25T03:14:59.040Z,9.40
2023-04-25T03:17:25.870Z,9.40
2023-04-25T03:19:52.690Z,9.40
2023-04-25T03:22:19.467Z,9.40
2023-04-25T03:24:46.503Z,9.90
2023-04-25T03:27:14.544Z,9.90
2023-04-25T03:29:41.453Z,9.70
2023-04-25T03:32:09.328Z,9.30
2023-04-25T03:34:36.418Z,9.30
2023-04-25T03:37:03.171Z,9.20
2023-04-25T03:39:34.111Z,9.30
2023-04-25T03:42:00.962Z,9.30
2023-04-25T03:44:29.295Z,9.30
2023-04-25T03:46:56.417Z,9.40
2023-04-25T03:49:26.041Z,9.30
2023-04-25T03:52:04.044Z,9.50
2023-04-25T03:54:36.360Z,9.50
2023-04-25T03:57:09.496Z,9.50
2023-04-25T03:59:38.916Z,10.40
2023-04-25T04:02:07.311Z,9.50
2023-04-25T04:04:36.890Z,9.50
2023-04-25T04:07:04.012Z,9.60
2023-04-25T04:09:34.658Z,9.70
2023-04-25T04:12:05.088Z,9.70
2023-04-25T04:14:32.900Z,9.70
2023-04-25T04:16:59.669Z,9.70
2023-04-25T04:19:27.591Z,9.80
2023-04-25T04:22:05.552Z,9.80
2023-04-25T04:24:32.354Z,9.80
2023-04-25T04:27:02.799Z,9.80
2023-04-25T04:29:51.206Z,9.80
2023-04-25T04:32:26.493Z,9.80
2023-04-25T04:34:55.868Z,9.80
2023-04-25T04:37:23.803Z,9.80
2023-04-25T04:39:51.174Z,9.70
2023-04-25T04:42:30.199Z,9.90
2023-04-25T04:45:11.215Z,9.90
2023-04-25T04:47:56.363Z,10.00
2023-04-25T04:50:55.338Z,10.00
2023-04-25T04:53:40.677Z,10.10
2023-04-25T04:56:26.337Z,10.10
2023-04-25T04:58:59.013Z,10.10
2023-04-25T05:01:38.737Z,10.20
2023-04-25T05:04:26.825Z,10.20
2023-04-25T05:07:19.967Z,10.30
2023-04-25T05:10:07.570Z,10.30
2023-04-25T05:12:37.410Z,10.30
2023-04-25T05:15:32.022Z,11.20
2023-04-25T05:18:18.916Z,10.30
2023-04-25T05:21:06.083Z,10.30
2023-04-25T05:23:56.686Z,10.30
2023-04-25T05:26:46.593Z,10.20
2023-04-25T05:29:28.597Z,10.20
2023-04-25T05:32:21.060Z,10.30
2023-04-25T05:34:49.646Z,10.30
2023-04-25T05:37:33.829Z,10.30
2023-04-25T05:40:10.611Z,10.40
2023-04-25T05:42:56.106Z,10.40
2023-04-25T05:45:28.774Z,10.40
2023-04-25T05:48:28.841Z,10.40
2023-04-25T05:51:03.277Z,10.40
2023-04-25T05:53:53.131Z,10.50
2023-04-25T05:56:20.535Z,10.50
2023-04-25T05:58:52.533Z,10.60
2023-04-25T06:01:19.539Z,10.60
2023-04-25T06:03:46.376Z,10.60
2023-04-25T06:06:13.472Z,10.70
2023-04-25T06:08:41.617Z,10.70
2023-04-25T06:11:11.791Z,11.00
2023-04-25T06:13:38.570Z,10.80
2023-04-25T06:16:05.980Z,10.90
2023-04-25T06:18:33.872Z,11.00
2023-04-25T06:21:00.690Z,11.00
2023-04-25T06:23:27.623Z,11.10
2023-04-25T06:26:02.604Z,11.10
2023-04-25T06:28:31.046Z,11.20
2023-04-25T06:30:57.922Z,11.30
2023-04-25T06:33:25.334Z,11.40
2023-04-25T06:35:52.977Z,11.50
2023-04-25T06:38:24.326Z,11.90
2023-04-25T06:40:52.573Z,11.60
2023-04-25T06:43:19.900Z,11.60
2023-04-25T06:45:55.701Z,11.60
2023-04-25T06:48:23.886Z,11.50
2023-04-25T06:50:51.488Z,11.60
2023-04-25T06:53:19.641Z,11.60
2023-04-25T06:55:49.960Z,11.60
2023-04-25T06:58:22.554Z,11.60
2023-04-25T07:00:55.416Z,11.50
2023-04-25T07:03:25.132Z,11.50
2023-04-25T07:05:56.479Z,11.70
2023-04-25T07:08:24.423Z,11.80
2023-04-25T07:10:51.332Z,11.90
2023-04-25T07:13:18.106Z,12.00
2023-04-25T07:15:45.401Z,11.90
2023-04-25T07:18:13.270Z,11.80
2023-04-25T07:20:40.170Z,11.60
2023-04-25T07:23:07.532Z,11.60
2023-04-25T07:25:34.241Z,11.60
2023-04-25T07:28:01.977Z,11.70
2023-04-25T07:30:28.769Z,11.80
2023-04-25T07:32:56.432Z,12.10
2023-04-25T07:35:23.650Z,12.30
2023-04-25T07:37:50.386Z,13.30
2023-04-25T07:40:19.709Z,12.30
2023-04-25T07:42:53.781Z,12.40
2023-04-25T07:45:28.248Z,12.40
2023-04-25T07:47:55.040Z,12.40
2023-04-25T07:50:22.500Z,12.50
2023-04-25T07:52:49.198Z,12.50
2023-04-25T07:55:22.832Z,12.60
2023-04-25T07:57:59.254Z,12.60
2023-04-25T08:00:29.733Z,12.60
2023-04-25T08:03:16.136Z,13.40
2023-04-25T08:05:43.627Z,12.50
2023-04-25T08:08:10.657Z,12.50
2023-04-25T08:10:37.874Z,12.60
2023-04-25T08:13:04.631Z,12.70
2023-04-25T08:15:31.472Z,12.70
2023-04-25T08:17:58.604Z,12.70
2023-04-25T08:20:26.040Z,12.80
2023-04-25T08:22:55.540Z,13.00
2023-04-25T08:25:29.506Z,12.90
2023-04-25T08:27:57.014Z,12.70
2023-04-25T08:30:23.943Z,12.40
2023-04-25T08:32:52.106Z,12.40
2023-04-25T08:35:54.402Z,13.00
2023-04-25T08:38:22.180Z,12.50
2023-04-25T08:40:52.870Z,12.50
2023-04-25T08:43:21.531Z,12.50
2023-04-25T08:45:49.009Z,13.10
2023-04-25T08:48:33.904Z,12.60
2023-04-25T08:51:03.644Z,12.50
2023-04-25T08:53:33.946Z,12.40
2023-04-25T08:56:03.952Z,12.30
2023-04-25T08:58:35.624Z,12.20
2023-04-25T09:01:03.100Z,12.20
2023-04-25T09:03:34.485Z,12.20
2023-04-25T09:06:01.926Z,12.20
2023-04-25T09:08:28.670Z,12.20
2023-04-25T09:10:55.404Z,12.40
2023-04-25T09:13:28.010Z,12.60
2023-04-25T09:16:22.657Z,12.80
2023-04-25T09:19:08.337Z,13.20
2023-04-25T09:21:35.896Z,13.30
2023-04-25T09:24:03.232Z,13.60
2023-04-25T09:26:30.279Z,13.70
2023-04-25T09:29:08.240Z,13.40
2023-04-25T09:31:37.628Z,13.30
2023-04-25T09:34:05.741Z,13.30
2023-04-25T09:36:42.977Z,13.40
2023-04-25T09:39:40.055Z,13.50
2023-04-25T09:42:14.360Z,13.50
2023-04-25T09:44:44.486Z,13.50
2023-04-25T09:47:13.705Z,14.10
2023-04-25T09:49:43.232Z,13.10
2023-04-25T09:52:18.388Z,13.30
2023-04-25T09:54:54.815Z,12.50
2023-04-25T09:57:28.954Z,12.40
2023-04-25T09:59:57.532Z,12.40
2023-04-25T10:02:28.678Z,13.20
2023-04-25T10:05:08.746Z,12.60
2023-04-25T10:07:40.966Z,12.70
2023-04-25T10:10:17.710Z,12.80
2023-04-25T10:12:46.044Z,13.90
2023-04-25T10:15:14.629Z,12.90
2023-04-25T10:17:41.605Z,13.20
2023-04-25T10:20:11.787Z,13.30
2023-04-25T10:22:42.861Z,13.50
2023-04-25T10:25:10.640Z,13.50
2023-04-25T10:27:38.107Z,13.50
2023-04-25T10:30:12.126Z,13.70
2023-04-25T10:32:39.395Z,13.80
2023-04-25T10:35:13.505Z,13.90
2023-04-25T10:37:59.240Z,14.10
2023-04-25T10:40:26.480Z,14.00
2023-04-25T10:42:55.326Z,13.80
2023-04-25T10:45:22.197Z,13.80
2023-04-25T10:47:49.244Z,13.70
2023-04-25T10:50:19.399Z,13.60
2023-04-25T10:52:46.179Z,13.60
2023-04-25T10:55:13.130Z,13.70
2023-04-25T10:57:45.156Z,13.80
2023-04-25T11:00:14.217Z,13.50
2023-04-25T11:02:48.943Z,13.70
2023-04-25T11:05:32.880Z,14.10
2023-04-25T11:08:07.708Z,14.60
2023-04-25T11:10:38.363Z,14.70
2023-04-25T11:13:05.807Z,14.60
2023-04-25T11:15:32.540Z,14.20
2023-04-25T11:17:59.318Z,13.80
2023-04-25T11:20:29.566Z,13.30
2023-04-25T11:22:59.966Z,13.10
2023-04-25T11:25:26.893Z,12.90
2023-04-25T11:27:54.362Z,12.50
2023-04-25T11:30:22.295Z,12.40
2023-04-25T11:32:49.365Z,12.00
2023-04-25T11:35:16.633Z,11.70
2023-04-25T11:37:44.601Z,11.70
2023-04-25T11:40:12.663Z,11.40
2023-04-25T11:42:47.968Z,11.60
2023-04-25T11:45:15.684Z,11.70
2023-04-25T11:47:43.161Z,11.90
2023-04-25T11:50:10.746Z,12.30
2023-04-25T11:52:44.912Z,12.70
2023-04-25T11:55:18.694Z,13.10
2023-04-25T11:57:49.687Z,13.70
2023-04-25T12:00:22.124Z,13.90
2023-04-25T12:02:56.918Z,14.40
2023-04-25T12:05:33.648Z,14.90
2023-04-25T12:08:17.176Z,15.00
2023-04-25T12:10:46.633Z,16.10
2023-04-25T12:13:21.979Z,15.60
2023-04-25T12:15:48.840Z,15.60
2023-04-25T12:18:15.810Z,15.70
2023-04-25T12:20:42.951Z,15.50
2023-04-25T12:23:09.787Z,15.60
2023-04-25T12:25:45.561Z,15.40
2023-04-25T12:28:13.095Z,15.50
2023-04-25T12:30:54.379Z,15.20
2023-04-25T12:33:21.687Z,15.00
2023-04-25T12:35:48.785Z,14.90
2023-04-25T12:38:31.046Z,14.80
2023-04-25T12:40:59.168Z,14.80
2023-04-25T12:43:26.202Z,14.90
2023-04-25T12:45:54.081Z,15.70
2023-04-25T12:48:21.795Z,15.60
2023-04-25T12:50:50.118Z,15.80
2023-04-25T12:53:17.638Z,16.40
2023-04-25T12:55:46.948Z,16.60
2023-04-25T12:58:14.730Z,16.60
2023-04-25T13:00:41.871Z,16.90
2023-04-25T13:03:10.211Z,16.80
2023-04-25T13:05:37.678Z,16.40
2023-04-25T13:08:05.138Z,16.40
2023-04-25T13:10:32.129Z,16.60
2023-04-25T13:12:58.843Z,16.90
2023-04-25T13:15:25.840Z,17.00
2023-04-25T13:17:52.520Z,17.40
2023-04-25T13:20:19.912Z,16.90
2023-04-25T13:22:46.775Z,16.40
2023-04-25T13:25:13.582Z,16.30
2023-04-25T13:27:41.634Z,16.20
2023-04-25T13:30:08.786Z,16.30
2023-04-25T13:32:39.237Z,16.20
2023-04-25T13:35:10.437Z,15.60
2023-04-25T13:37:38.199Z,15.40
2023-04-25T13:40:07.354Z,14.90
2023-04-25T13:42:34.155Z,14.50
2023-04-25T13:45:01.156Z,14.20
2023-04-25T13:47:28.563Z,14.30
2023-04-25T13:49:55.480Z,14.60
2023-04-25T13:52:22.303Z,14.90
2023-04-25T13:54:49.117Z,15.70
2023-04-25T13:57:16.348Z,16.20
2023-04-25T13:59:43.361Z,16.30
2023-04-25T14:02:10.354Z,17.20
2023-04-25T14:04:37.302Z,16.50
2023-04-25T14:07:04.637Z,17.10
2023-04-25T14:09:31.706Z,17.20
2023-04-25T14:11:58.494Z,16.60
2023-04-25T14:14:25.509Z,16.40
2023-04-25T14:16:54.649Z,16.50
2023-04-25T14:19:22.455Z,16.70
2023-04-25T14:21:49.399Z,17.00
2023-04-25T14:24:16.793Z,17.30
2023-04-25T14:26:44.336Z,17.70
2023-04-25T14:29:12.931Z,18.20
2023-04-25T14:31:41.278Z,18.60
2023-04-25T14:34:08.996Z,18.90
2023-04-25T14:36:37.264Z,19.20
2023-04-25T14:39:06.390Z,19.10
2023-04-25T14:41:33.305Z,18.90
2023-04-25T14:44:00.438Z,18.90
2023-04-25T14:46:27.784Z,18.90
2023-04-25T14:48:56.727Z,18.20
2023-04-25T14:51:23.617Z,18.20
2023-04-25T14:53:51.511Z,18.10
2023-04-25T14:56:18.595Z,18.10
2023-04-25T14:58:46.466Z,18.20
2023-04-25T15:01:14.024Z,17.90
2023-04-25T15:03:43.967Z,18.00
2023-04-25T15:06:10.930Z,17.60
2023-04-25T15:08:37.917Z,16.30
2023-04-25T15:11:05.048Z,15.90
2023-04-25T15:13:32.064Z,15.90
2023-04-25T15:15:58.874Z,16.20
2023-04-25T15:18:25.789Z,16.80
2023-04-25T15:20:54.009Z,17.30
2023-04-25T15:23:22.152Z,17.80
2023-04-25T15:25:50.964Z,18.20
2023-04-25T15:28:17.835Z,18.60
2023-04-25T15:30:44.886Z,18.30
2023-04-25T15:33:11.712Z,17.60
2023-04-25T15:35:38.659Z,16.80
2023-04-25T15:38:05.896Z,17.20
2023-04-25T15:40:32.648Z,16.00
2023-04-25T15:42:59.732Z,15.70
2023-04-25T15:45:26.837Z,15.30
2023-04-25T15:47:55.725Z,15.10
2023-04-25T15:50:23.426Z,15.00
2023-04-25T15:52:51.110Z,14.90
2023-04-25T15:55:19.445Z,14.90
2023-04-25T15:57:46.402Z,15.10
2023-04-25T16:00:15.053Z,15.20
2023-04-25T16:02:44.127Z,15.50
2023-04-25T16:05:12.898Z,16.20
2023-04-25T16:07:40.907Z,15.30
2023-04-25T16:10:08.983Z,15.80
2023-04-25T16:12:37.007Z,15.00
2023-04-25T16:15:04.760Z,14.90
2023-04-25T16:17:33.208Z,14.80
2023-04-25T16:20:01.901Z,14.70
2023-04-25T16:22:28.966Z,14.50
2023-04-25T16:24:55.837Z,14.30
2023-04-25T16:27:22.601Z,14.00
2023-04-25T16:29:51.228Z,13.80
2023-04-25T16:32:18.141Z,13.70
2023-04-25T16:34:45.335Z,14.40
2023-04-25T16:37:12.240Z,13.90
2023-04-25T16:39:38.969Z,14.10
2023-04-25T16:42:06.141Z,14.30
2023-04-25T16:44:32.830Z,14.10
2023-04-25T16:46:59.648Z,14.10
2023-04-25T16:49:26.508Z,14.00
2023-04-25T16:51:53.340Z,13.90
2023-04-25T16:54:20.127Z,14.10
2023-04-25T16:56:46.896Z,15.30
2023-04-25T16:59:13.676Z,15.20
2023-04-25T17:01:40.342Z,15.50
2023-04-25T17:04:07.595Z,15.50
2023-04-25T17:06:35.089Z,15.50
2023-04-25T17:09:01.951Z,15.30
2023-04-25T17:11:28.738Z,15.30
2023-04-25T17:13:55.605Z,15.30
2023-04-25T17:16:23.262Z,15.40
2023-04-25T17:18:53.293Z,15.10
2023-04-25T17:21:20.393Z,15.30
2023-04-25T17:23:47.282Z,14.60
2023-04-25T17:26:14.818Z,14.00
2023-04-25T17:28:42.198Z,13.90
2023-04-25T17:31:09.832Z,14.50
2023-04-25T17:33:36.745Z,13.90
2023-04-25T17:36:04.104Z,14.00
2023-04-25T17:38:32.089Z,14.10
2023-04-25T17:40:59.035Z,14.00
2023-04-25T17:43:27.609Z,14.10
2023-04-25T17:45:54.682Z,14.40
2023-04-25T17:48:24.887Z,14.10
2023-04-25T17:50:51.778Z,14.00
2023-04-25T17:53:18.502Z,13.90
2023-04-25T17:55:45.200Z,13.80
2023-04-25T17:58:11.970Z,13.70
2023-04-25T18:00:39.255Z,13.60
2023-04-25T18:03:06.778Z,13.40
2023-04-25T18:05:33.677Z,14.20
2023-04-25T18:08:00.905Z,13.30
2023-04-25T18:10:27.962Z,13.20
2023-04-25T18:12:54.802Z,13.10
2023-04-25T18:15:22.881Z,13.50
2023-04-25T18:17:49.827Z,12.70
2023-04-25T18:20:16.988Z,13.10
2023-04-25T18:22:45.093Z,12.50
2023-04-25T18:25:13.556Z,12.30
2023-04-25T18:27:41.466Z,12.30
2023-04-25T18:30:10.826Z,12.30
2023-04-25T18:32:38.373Z,12.40
2023-04-25T18:35:05.863Z,12.50
2023-04-25T18:37:32.919Z,12.60
2023-04-25T18:39:59.762Z,12.60
2023-04-25T18:42:26.641Z,12.70
2023-04-25T18:44:53.451Z,12.60
2023-04-25T18:47:20.254Z,12.60
2023-04-25T18:49:47.866Z,12.70
2023-04-25T18:52:16.085Z,12.60
2023-04-25T18:54:43.220Z,13.30
2023-04-25T18:57:11.474Z,12.50
2023-04-25T18:59:38.216Z,13.50
2023-04-25T19:02:05.362Z,12.20
2023-04-25T19:04:32.595Z,12.10
2023-04-25T19:06:59.637Z,11.90
2023-04-25T19:09:26.568Z,11.70
2023-04-25T19:11:54.137Z,11.70
2023-04-25T19:14:21.001Z,11.50
2023-04-25T19:16:47.786Z,11.80
2023-04-25T19:19:14.669Z,11.50
2023-04-25T19:21:41.810Z,11.40
2023-04-25T19:24:09.126Z,11.30
2023-04-25T19:26:35.905Z,11.40
2023-04-25T19:29:08.408Z,11.40
2023-04-25T19:31:36.705Z,11.40
2023-04-25T19:34:04.973Z,11.20
2023-04-25T19:36:32.119Z,11.30
2023-04-25T19:39:02.715Z,11.30
2023-04-25T19:41:31.157Z,11.40
2023-04-25T19:44:00.823Z,11.40
2023-04-25T19:46:27.616Z,11.30
2023-04-25T19:48:55.290Z,11.30
2023-04-25T19:51:22.215Z,11.30
2023-04-25T19:53:49.127Z,11.30
2023-04-25T19:56:16.126Z,11.80
2023-04-25T19:58:42.946Z,11.20
2023-04-25T20:01:09.953Z,11.20
2023-04-25T20:03:36.942Z,11.20
2023-04-25T20:06:04.059Z,11.10
2023-04-25T20:08:30.843Z,11.00
2023-04-25T20:10:57.606Z,11.10
2023-04-25T20:13:24.391Z,10.80
2023-04-25T20:15:51.438Z,10.70
2023-04-25T20:18:18.233Z,10.90
2023-04-25T20:20:45.439Z,10.80
2023-04-25T20:23:12.173Z,10.70
2023-04-25T20:25:39.019Z,10.70
2023-04-25T20:28:06.122Z,10.70
2023-04-25T20:30:33.123Z,10.70
2023-04-25T20:33:01.713Z,10.80
2023-04-25T20:35:28.514Z,10.80
2023-04-25T20:37:56.020Z,10.90
2023-04-25T20:40:22.746Z,10.80
2023-04-25T20:42:49.685Z,10.90
2023-04-25T20:45:16.618Z,11.10
2023-04-25T20:47:44.459Z,10.80
2023-04-25T20:50:11.350Z,10.70
2023-04-25T20:52:38.639Z,10.70
2023-04-25T20:55:06.858Z,10.60
2023-04-25T20:57:33.628Z,10.50
2023-04-25T21:00:00.343Z,10.80
2023-04-25T21:02:27.484Z,10.50
2023-04-25T21:04:54.323Z,10.50
2023-04-25T21:07:21.071Z,10.50
2023-04-25T21:09:47.977Z,10.40
2023-04-25T21:12:14.770Z,10.40
2023-04-25T21:14:41.522Z,11.10
2023-04-25T21:17:08.288Z,10.30
2023-04-25T21:19:35.163Z,10.30
2023-04-25T21:22:03.625Z,10.30
2023-04-25T21:24:32.846Z,10.30
2023-04-25T21:26:59.563Z,10.30
2023-04-25T21:29:26.332Z,10.20
2023-04-25T21:31:53.163Z,12.20
2023-04-25T21:34:19.864Z,10.10
2023-04-25T21:36:46.586Z,10.20
2023-04-25T21:39:14.783Z,10.10
2023-04-25T21:41:43.437Z,10.10
2023-04-25T21:44:12.465Z,10.00
2023-04-25T21:46:39.282Z,10.00
2023-04-25T21:49:06.785Z,10.00
2023-04-25T21:51:33.679Z,10.00
2023-04-25T21:54:05.013Z,10.00
2023-04-25T21:56:32.712Z,9.90
2023-04-25T21:58:59.451Z,9.80
2023-04-25T22:01:27.496Z,10.00
2023-04-25T22:03:54.394Z,9.80
2023-04-25T22:06:21.504Z,9.80
2023-04-25T22:08:48.253Z,9.80
2023-04-25T22:11:15.042Z,9.70
2023-04-25T22:13:41.784Z,9.70
2023-04-25T22:16:11.826Z,9.70
2023-04-25T22:18:40.408Z,9.60
2023-04-25T22:21:07.254Z,9.60
2023-04-25T22:23:34.002Z,9.60
2023-04-25T22:26:00.942Z,9.60
2023-04-25T22:28:27.990Z,9.70
2023-04-25T22:30:54.898Z,9.60
2023-04-25T22:33:21.938Z,9.50
2023-04-25T22:35:48.658Z,9.60
2023-04-25T22:38:15.948Z,9.50
2023-04-25T22:40:42.936Z,9.50
2023-04-25T22:43:10.554Z,9.50
2023-04-25T22:45:37.336Z,9.40
2023-04-25T22:48:04.418Z,9.40
2023-04-25T22:50:31.765Z,9.40
2023-04-25T22:52:58.507Z,9.30
2023-04-25T22:55:26.718Z,9.20
2023-04-25T22:57:53.430Z,9.20
2023-04-25T23:00:21.663Z,9.20
2023-04-25T23:02:49.564Z,9.20
2023-04-25T23:05:16.837Z,9.10
2023-04-25T23:07:46.793Z,9.10
2023-04-25T23:10:14.110Z,9.10
2023-04-25T23:12:41.044Z,8.90
2023-04-25T23:15:08.538Z,8.90
2023-04-25T23:17:35.403Z,8.90
2023-04-25T23:20:02.293Z,8.80
2023-04-25T23:22:29.589Z,8.90
2023-04-25T23:24:56.586Z,9.00
2023-04-25T23:27:23.297Z,9.00
2023-04-25T23:29:57.279Z,9.10
2023-04-25T23:32:25.919Z,9.20
2023-04-25T23:34:52.664Z,9.80
2023-04-25T23:37:19.467Z,9.30
2023-04-25T23:39:52.373Z,9.30
2023-04-25T23:42:19.302Z,9.30
2023-04-25T23:44:46.065Z,9.30
2023-04-25T23:47:13.947Z,9.30
2023-04-25T23:49:41.178Z,9.40
2023-04-25T23:52:08.131Z,9.30
2023-04-25T23:54:34.904Z,10.20
2023-04-25T23:57:04.251Z,9.40
2023-04-25T23:59:31.667Z,9.30
